Time;durP1;ratioP1;P1;durP2;ratioP2;P2;SDS_P1;SDS_P2;PMS_P1;PMS_P2;Temp;Humidity;BMP_temperature;BMP_pressure;BME280_temperature;BME280_humidity;BME280_pressure;Samples;Min_cycle;Max_cycle;Signal;HPM_P1;HPM_P2
2023/04/23 00:02:15;;;;;;;10.27;6.40;;;;;;;14.77;60.51;95594.22;5009397;28;20208;-68
2023/04/23 00:04:49;;;;;;;7.70;7.00;;;;;;;14.91;60.20;95597.66;5009421;28;20458;-68
2023/04/23 00:07:15;;;;;;;6.80;6.20;;;;;;;15.06;59.71;95585.94;5008678;28;20419;-68
2023/04/23 00:09:43;;;;;;;8.93;7.50;;;;;;;15.12;59.58;95600.47;5009143;28;20416;-68
2023/04/23 00:12:09;;;;;;;7.27;6.57;;;;;;;15.11;59.40;95593.53;5009207;28;20430;-68
2023/04/23 00:14:35;;;;;;;7.00;5.50;;;;;;;15.14;59.26;95599.44;5009139;28;20415;-67
2023/04/23 00:17:00;;;;;;;10.67;8.50;;;;;;;15.09;59.79;95603.34;5009173;28;20418;-68
2023/04/23 00:19:25;;;;;;;15.73;7.53;;;;;;;15.06;59.80;95596.50;5009068;28;20282;-68
2023/04/23 00:21:51;;;;;;;8.40;6.33;;;;;;;15.04;59.83;95601.06;5008579;28;20196;-67
2023/04/23 00:24:16;;;;;;;10.47;6.83;;;;;;;15.04;59.63;95596.63;5008042;28;20204;-69
2023/04/23 00:26:42;;;;;;;14.67;6.90;;;;;;;15.10;59.75;95597.13;5008515;28;20172;-67
2023/04/23 00:29:07;;;;;;;7.70;6.90;;;;;;;15.00;59.89;95591.66;5008815;28;20168;-69
2023/04/23 00:31:33;;;;;;;6.93;6.20;;;;;;;14.95;60.07;95596.44;5008567;28;20653;-69
2023/04/23 00:33:58;;;;;;;6.50;5.80;;;;;;;15.04;59.60;95591.31;5008675;28;20204;-69
2023/04/23 00:36:24;;;;;;;15.63;6.43;;;;;;;14.99;59.79;95587.34;5008127;28;20226;-69
2023/04/23 00:38:50;;;;;;;10.73;6.40;;;;;;;14.98;59.75;95596.25;5008349;28;20180;-68
2023/04/23 00:41:16;;;;;;;10.83;7.30;;;;;;;14.96;60.06;95588.44;5008341;28;20438;-67
2023/04/23 00:43:43;;;;;;;7.07;6.37;;;;;;;14.96;59.93;95587.59;5007923;28;20204;-68
2023/04/23 00:46:09;;;;;;;9.77;7.50;;;;;;;14.98;59.37;95590.97;5007833;28;20419;-67
2023/04/23 00:48:35;;;;;;;9.67;7.43;;;;;;;14.98;59.59;95594.44;5008161;28;20427;-69
2023/04/23 00:51:05;;;;;;;11.40;7.73;;;;;;;14.95;59.62;95597.31;5008340;28;20180;-68
2023/04/23 00:53:32;;;;;;;7.90;6.30;;;;;;;15.02;60.00;95593.28;5006913;28;20802;-68
2023/04/23 00:56:00;;;;;;;7.47;6.73;;;;;;;14.93;59.74;95593.09;5006875;28;20458;-69
2023/04/23 00:58:26;;;;;;;7.20;6.50;;;;;;;14.91;59.95;95597.66;5005778;28;20514;-69
2023/04/23 01:00:52;;;;;;;8.73;7.10;;;;;;;14.93;59.94;95601.88;5005251;28;20431;-69
2023/04/23 01:03:20;;;;;;;7.70;7.00;;;;;;;14.96;59.92;95599.00;5007657;28;20458;-68
2023/04/23 01:05:47;;;;;;;6.37;5.73;;;;;;;14.94;59.92;95603.53;5007764;28;20576;-68
2023/04/23 01:08:14;;;;;;;11.60;6.83;;;;;;;14.95;60.34;95602.59;5007560;28;20951;-68
2023/04/23 01:10:41;;;;;;;8.20;7.10;;;;;;;15.03;61.13;95605.50;5007679;28;20476;-67
2023/04/23 01:13:07;;;;;;;8.73;7.70;;;;;;;14.89;62.27;95612.78;5007558;28;20438;-69
2023/04/23 01:15:32;;;;;;;9.40;7.27;;;;;;;14.74;62.95;95602.38;5007704;28;20415;-69
2023/04/23 01:17:58;;;;;;;11.50;7.77;;;;;;;14.69;63.31;95608.94;5006304;28;20176;-67
2023/04/23 01:20:23;;;;;;;10.13;6.63;;;;;;;14.75;63.13;95596.13;5007640;28;20259;-69
2023/04/23 01:22:49;;;;;;;8.07;6.40;;;;;;;14.68;62.74;95602.81;5007484;28;20268;-67
2023/04/23 01:25:15;;;;;;;6.40;5.60;;;;;;;14.71;62.02;95609.69;5007406;28;20180;-68
2023/04/23 01:27:41;;;;;;;6.27;5.67;;;;;;;14.83;60.99;95606.13;5007196;28;20184;-67
2023/04/23 01:30:07;;;;;;;5.03;4.53;;;;;;;14.82;59.81;95604.47;5006481;28;20920;-67
2023/04/23 01:32:34;;;;;;;4.83;3.93;;;;;;;14.83;58.47;95608.78;5006488;28;20207;-67
2023/04/23 01:35:00;;;;;;;5.37;4.50;;;;;;;14.91;57.07;95610.88;5006076;28;20431;-68
2023/04/23 01:37:26;;;;;;;5.23;4.20;;;;;;;14.86;57.15;95608.56;5006629;28;20411;-69
2023/04/23 01:39:52;;;;;;;13.30;5.20;;;;;;;14.81;58.24;95616.81;5020274;28;20469;-69
2023/04/23 01:42:18;;;;;;;7.10;4.70;;;;;;;14.80;57.81;95612.47;5027035;28;20470;-68
2023/04/23 01:44:44;;;;;;;5.80;4.50;;;;;;;14.78;58.72;95610.91;5026780;28;20211;-69
2023/04/23 01:47:10;;;;;;;9.70;5.80;;;;;;;14.72;59.17;95616.66;5027138;28;20422;-68
2023/04/23 01:49:35;;;;;;;7.07;6.33;;;;;;;14.60;60.50;95613.13;5026976;28;20175;-69
2023/04/23 01:52:01;;;;;;;21.93;6.70;;;;;;;14.68;60.97;95625.75;5012894;28;20200;-68
2023/04/23 01:54:26;;;;;;;8.83;6.20;;;;;;;14.42;62.38;95625.78;5007206;28;20176;-68
2023/04/23 01:56:53;;;;;;;6.30;5.80;;;;;;;14.53;62.27;95622.41;5006810;28;20561;-68
2023/04/23 01:59:20;;;;;;;8.23;6.30;;;;;;;14.50;63.11;95620.78;5005313;28;20187;-68
2023/04/23 02:01:46;;;;;;;7.50;5.80;;;;;;;14.50;63.46;95612.88;5003282;28;20438;-68
2023/04/23 02:04:14;;;;;;;7.80;6.50;;;;;;;14.52;63.20;95620.69;5004322;28;20475;-68
2023/04/23 02:06:41;;;;;;;10.03;6.30;;;;;;;14.55;63.41;95626.66;5006889;28;20423;-68
2023/04/23 02:09:07;;;;;;;6.93;6.23;;;;;;;14.51;63.17;95621.66;5007411;28;20422;-66
2023/04/23 02:11:32;;;;;;;7.03;6.33;;;;;;;14.56;63.24;95632.75;5007389;28;20426;-67
2023/04/23 02:13:59;;;;;;;7.77;7.13;;;;;;;14.53;63.36;95625.88;5007186;28;20786;-68
2023/04/23 02:16:27;;;;;;;7.20;6.50;;;;;;;14.52;63.63;95628.63;5007016;28;20238;-69
2023/04/23 02:18:53;;;;;;;8.43;7.00;;;;;;;14.51;63.65;95633.06;5007296;28;20429;-67
2023/04/23 02:21:18;;;;;;;9.23;6.00;;;;;;;14.49;64.14;95632.31;5009310;28;20871;-68
2023/04/23 02:23:44;;;;;;;7.40;6.70;;;;;;;14.40;64.38;95633.81;5007916;28;20720;-68
2023/04/23 02:26:09;;;;;;;7.00;6.00;;;;;;;14.40;64.47;95632.97;5006997;28;20183;-68
2023/04/23 02:28:35;;;;;;;8.10;6.17;;;;;;;14.42;64.02;95641.63;5009052;28;20176;-69
2023/04/23 02:31:00;;;;;;;11.37;6.43;;;;;;;14.45;64.01;95635.28;5010129;28;20241;-69
2023/04/23 02:33:25;;;;;;;7.63;5.83;;;;;;;14.48;64.03;95641.22;5011604;28;20192;-67
2023/04/23 02:35:51;;;;;;;8.00;6.40;;;;;;;14.42;64.28;95641.63;5011476;28;20179;-69
2023/04/23 02:38:16;;;;;;;7.13;5.87;;;;;;;14.40;65.12;95646.19;5012622;28;20176;-70
2023/04/23 02:40:42;;;;;;;8.77;5.57;;;;;;;14.23;65.41;95642.09;5013380;28;20196;-67
2023/04/23 02:43:08;;;;;;;6.40;5.80;;;;;;;14.16;65.60;95656.69;5007433;28;20200;-69
2023/04/23 02:45:33;;;;;;;6.30;5.70;;;;;;;14.06;66.57;95659.13;5007251;28;20810;-67
2023/04/23 02:47:58;;;;;;;9.93;7.07;;;;;;;13.96;67.08;95656.28;5008650;28;20180;-67
2023/04/23 02:50:24;;;;;;;8.00;7.20;;;;;;;13.93;67.34;95669.66;5027230;28;20183;-68
2023/04/23 02:52:49;;;;;;;9.20;7.27;;;;;;;14.00;67.45;95659.53;5031048;28;20187;-69
2023/04/23 02:55:15;;;;;;;10.93;8.40;;;;;;;13.77;68.67;95671.66;5029679;28;20171;-69
2023/04/23 02:57:41;;;;;;;7.53;6.83;;;;;;;13.74;69.31;95669.22;5030545;28;20183;-68
2023/04/23 03:00:07;;;;;;;8.47;7.60;;;;;;;13.72;69.36;95673.75;5017161;28;20267;-68
2023/04/23 03:02:33;;;;;;;8.70;7.10;;;;;;;13.64;69.43;95668.19;5010601;28;20608;-68
2023/04/23 03:04:58;;;;;;;8.40;7.60;;;;;;;13.60;69.52;95669.31;5010949;28;20430;-67
2023/04/23 03:07:24;;;;;;;10.97;7.30;;;;;;;13.61;69.45;95677.16;5006275;28;20271;-67
2023/04/23 03:09:49;;;;;;;7.77;7.07;;;;;;;13.71;69.67;95661.53;5007988;28;20196;-69
2023/04/23 03:12:15;;;;;;;8.40;7.60;;;;;;;13.69;69.80;95668.72;5004588;28;20650;-68
2023/04/23 03:14:40;;;;;;;10.87;8.10;;;;;;;13.65;69.85;95670.69;5010497;28;20184;-68
2023/04/23 03:17:06;;;;;;;8.50;7.27;;;;;;;13.63;69.65;95671.75;5010381;28;20176;-68
2023/04/23 03:19:32;;;;;;;10.50;7.70;;;;;;;13.74;69.40;95674.50;5010211;28;20183;-69
2023/04/23 03:21:57;;;;;;;8.50;7.70;;;;;;;13.62;70.14;95676.19;5010441;28;20254;-69
2023/04/23 03:24:23;;;;;;;8.83;7.17;;;;;;;13.64;69.39;95676.94;5010494;28;20207;-67
2023/04/23 03:26:48;;;;;;;11.30;8.40;;;;;;;13.64;70.14;95671.66;5010062;28;20204;-67
2023/04/23 03:29:14;;;;;;;8.30;7.60;;;;;;;13.58;70.01;95676.50;5009873;28;20274;-68
2023/04/23 03:31:39;;;;;;;9.30;7.57;;;;;;;13.61;69.56;95681.56;5009772;28;20176;-68
2023/04/23 03:34:05;;;;;;;7.63;6.93;;;;;;;13.53;70.01;95674.16;5010811;28;20564;-68
2023/04/23 03:36:31;;;;;;;8.90;6.57;;;;;;;13.60;70.05;95675.44;5009879;28;20199;-69
2023/04/23 03:38:56;;;;;;;8.50;7.20;;;;;;;13.65;70.16;95678.59;5009982;28;20614;-69
2023/04/23 03:41:23;;;;;;;7.83;7.13;;;;;;;13.63;70.12;95679.66;5009697;28;20187;-68
2023/04/23 03:43:48;;;;;;;9.90;7.60;;;;;;;13.60;70.40;95670.16;5008260;28;20232;-68
2023/04/23 03:46:13;;;;;;;9.47;7.13;;;;;;;13.56;70.35;95679.25;5009816;28;20454;-67
2023/04/23 03:48:39;;;;;;;13.23;8.20;;;;;;;13.54;69.92;95675.88;5009647;28;20176;-68
2023/04/23 03:51:04;;;;;;;7.77;6.90;;;;;;;13.41;70.68;95675.00;5009580;28;20551;-69
2023/04/23 03:53:30;;;;;;;12.47;7.60;;;;;;;13.39;70.30;95680.34;5009584;28;20199;-68
2023/04/23 03:55:55;;;;;;;7.70;6.90;;;;;;;13.44;70.91;95680.03;5009277;28;20172;-69
2023/04/23 03:58:21;;;;;;;15.83;7.53;;;;;;;13.39;70.94;95685.63;5009511;28;20592;-68
2023/04/23 04:00:46;;;;;;;15.57;7.20;;;;;;;13.42;70.15;95682.81;5008707;28;20187;-67
2023/04/23 04:03:12;;;;;;;9.63;7.17;;;;;;;13.39;70.77;95680.34;5009784;28;20222;-68
2023/04/23 04:05:37;;;;;;;12.77;7.17;;;;;;;13.43;70.84;95684.47;5009376;28;20259;-70
2023/04/23 04:08:04;;;;;;;8.70;7.33;;;;;;;13.45;70.95;95687.88;5009256;28;20199;-67
2023/04/23 04:10:29;;;;;;;13.10;7.23;;;;;;;13.39;70.67;95690.91;5009773;28;20230;-69
2023/04/23 04:12:55;;;;;;;7.90;7.20;;;;;;;13.35;71.13;95686.78;5007508;28;20928;-69
2023/04/23 04:15:21;;;;;;;8.03;7.23;;;;;;;13.27;71.32;95689.03;5005175;28;20188;-69
2023/04/23 04:17:46;;;;;;;9.20;6.80;;;;;;;13.29;72.06;95687.19;5009365;28;20263;-69
2023/04/23 04:20:15;;;;;;;6.90;6.23;;;;;;;13.29;71.79;95676.66;5007345;28;20184;-69
2023/04/23 04:22:40;;;;;;;8.10;7.20;;;;;;;13.33;71.66;95675.50;5005185;28;20265;-70
2023/04/23 04:25:06;;;;;;;7.70;6.90;;;;;;;13.27;72.07;95668.84;5005648;28;20825;-70
2023/04/23 04:27:33;;;;;;;10.50;7.67;;;;;;;13.14;72.38;95662.69;5003908;28;20180;-69
2023/04/23 04:30:00;;;;;;;6.73;6.10;;;;;;;13.13;72.06;95660.97;5004660;28;20438;-69
2023/04/23 04:32:26;;;;;;;11.60;7.40;;;;;;;13.22;71.39;95662.16;5005781;28;20458;-68
2023/04/23 04:34:51;;;;;;;9.83;6.60;;;;;;;13.20;72.30;95664.06;5003754;28;20760;-68
2023/04/23 04:37:17;;;;;;;17.50;7.77;;;;;;;13.19;71.37;95665.00;5004627;28;20176;-68
2023/04/23 04:39:42;;;;;;;16.03;7.63;;;;;;;13.19;72.02;95670.28;5006188;28;20192;-70
2023/04/23 04:42:08;;;;;;;8.87;7.63;;;;;;;13.17;71.95;95670.38;5006809;28;20231;-68
2023/04/23 04:44:36;;;;;;;14.47;7.40;;;;;;;13.19;72.94;95665.84;5005247;28;20212;-67
2023/04/23 04:47:01;;;;;;;9.77;6.47;;;;;;;13.08;73.02;95663.91;5005619;28;20238;-68
2023/04/23 04:49:27;;;;;;;14.60;7.40;;;;;;;13.10;72.64;95663.81;5006778;28;20544;-68
2023/04/23 04:51:53;;;;;;;18.60;8.00;;;;;;;13.29;72.18;95663.47;5005252;28;20198;-68
2023/04/23 04:54:19;;;;;;;20.50;7.73;;;;;;;13.23;72.56;95664.72;5006132;28;20203;-67
2023/04/23 04:56:45;;;;;;;19.27;8.00;;;;;;;13.24;72.82;95673.44;5006645;28;20270;-68
2023/04/23 04:59:10;;;;;;;13.27;7.73;;;;;;;13.27;72.31;95668.84;5003424;28;20534;-69
2023/04/23 05:01:36;;;;;;;10.50;7.40;;;;;;;12.97;73.87;95668.19;5006704;28;20191;-68
2023/04/23 05:04:02;;;;;;;12.03;7.20;;;;;;;13.12;73.05;95670.66;5003877;28;20265;-69
2023/04/23 05:06:28;;;;;;;12.80;7.27;;;;;;;13.12;72.67;95675.09;5005395;28;20936;-68
2023/04/23 05:08:53;;;;;;;8.00;7.20;;;;;;;13.14;73.08;95684.59;5006502;28;20184;-68
2023/04/23 05:11:19;;;;;;;10.13;7.37;;;;;;;13.17;72.53;95678.28;5006461;28;20187;-68
2023/04/23 05:13:46;;;;;;;14.03;8.10;;;;;;;13.20;73.20;95675.44;5004859;28;20565;-68
2023/04/23 05:16:12;;;;;;;21.77;8.07;;;;;;;13.21;72.70;95684.19;5006040;28;20509;-68
2023/04/23 05:18:38;;;;;;;16.20;7.10;;;;;;;13.13;73.04;95675.00;5005278;28;20427;-68
2023/04/23 05:21:05;;;;;;;10.33;7.10;;;;;;;12.96;73.47;95679.69;5005615;28;20184;-68
2023/04/23 05:23:30;;;;;;;18.17;7.87;;;;;;;13.06;73.45;95683.38;5005436;28;20471;-68
2023/04/23 05:25:57;;;;;;;9.27;6.77;;;;;;;13.13;72.78;95682.03;5004285;28;20837;-68
2023/04/23 05:28:23;;;;;;;7.50;6.57;;;;;;;13.08;73.24;95678.88;5006538;28;20188;-68
2023/04/23 05:30:49;;;;;;;8.63;6.63;;;;;;;13.02;72.80;95682.75;5006326;28;20458;-67
2023/04/23 05:33:15;;;;;;;8.27;6.40;;;;;;;13.05;73.61;95682.56;5003547;28;20196;-68
2023/04/23 05:35:41;;;;;;;8.57;6.97;;;;;;;13.08;73.07;95684.97;5006097;28;20564;-68
2023/04/23 05:38:07;;;;;;;11.37;7.40;;;;;;;13.05;73.11;95689.63;5003390;28;20177;-68
2023/04/23 05:40:33;;;;;;;12.17;7.13;;;;;;;13.07;72.53;95690.38;5005797;28;20546;-68
2023/04/23 05:42:58;;;;;;;10.30;7.03;;;;;;;13.10;72.48;95692.78;5003967;28;20481;-67
2023/04/23 05:45:24;;;;;;;12.23;6.57;;;;;;;13.14;72.85;95692.50;5004636;28;20246;-67
2023/04/23 05:47:50;;;;;;;7.60;6.77;;;;;;;13.16;72.64;95687.13;5005044;28;20187;-67
2023/04/23 05:50:16;;;;;;;10.83;7.50;;;;;;;13.11;73.07;95690.06;5005964;28;20431;-69
2023/04/23 05:52:42;;;;;;;7.87;6.20;;;;;;;13.11;73.16;95683.97;5002020;28;20212;-70
2023/04/23 05:55:08;;;;;;;8.40;6.70;;;;;;;13.16;73.19;95687.13;5005549;28;20430;-69
2023/04/23 05:57:35;;;;;;;9.60;7.20;;;;;;;13.24;72.75;95687.47;5003998;28;20544;-69
2023/04/23 06:00:00;;;;;;;13.03;6.80;;;;;;;13.30;72.72;95684.47;5004694;28;20441;-69
2023/04/23 06:02:27;;;;;;;32.50;9.30;;;;;;;13.30;72.76;95689.72;5005053;28;20549;-68
2023/04/23 06:04:52;;;;;;;20.93;7.80;;;;;;;13.34;73.14;95688.56;5005685;28;20502;-68
2023/04/23 06:07:18;;;;;;;28.63;9.00;;;;;;;13.34;72.53;95693.84;5003540;28;20438;-68
2023/04/23 06:09:43;;;;;;;17.07;6.83;;;;;;;13.28;73.17;95689.00;5005719;28;20188;-69
2023/04/23 06:12:10;;;;;;;15.77;7.10;;;;;;;13.44;72.17;95687.94;5003879;28;20203;-69
2023/04/23 06:14:35;;;;;;;8.80;6.47;;;;;;;13.50;72.02;95690.19;5005375;28;20493;-69
2023/04/23 06:17:01;;;;;;;14.93;7.70;;;;;;;13.49;72.17;95689.34;5004626;28;20438;-69
2023/04/23 06:19:26;;;;;;;10.03;7.07;;;;;;;13.52;72.73;95689.16;5005862;28;20192;-68
2023/04/23 06:21:52;;;;;;;8.13;7.30;;;;;;;13.60;71.84;95688.63;5003944;28;20199;-69
2023/04/23 06:24:18;;;;;;;8.00;6.20;;;;;;;13.50;72.48;95698.94;5009550;28;20234;-68
2023/04/23 06:26:43;;;;;;;7.77;6.60;;;;;;;13.58;71.91;95693.16;5009077;28;20473;-68
2023/04/23 06:29:09;;;;;;;13.90;6.57;;;;;;;13.46;72.14;95688.69;5007063;28;20188;-68
2023/04/23 06:31:34;;;;;;;12.67;6.83;;;;;;;13.58;71.97;95697.59;5008723;28;20653;-69
2023/04/23 06:34:00;;;;;;;16.13;7.27;;;;;;;13.60;71.22;95685.97;5007813;28;20214;-69
2023/04/23 06:36:26;;;;;;;12.70;7.37;;;;;;;13.59;72.23;95689.59;5009246;28;20195;-69
2023/04/23 06:38:51;;;;;;;12.27;7.63;;;;;;;13.54;72.08;95684.63;5009440;28;20183;-70
2023/04/23 06:41:17;;;;;;;11.87;7.70;;;;;;;13.53;72.25;95682.06;5007194;28;20246;-68
2023/04/23 06:43:42;;;;;;;14.23;7.73;;;;;;;13.58;72.12;95682.59;5008276;28;20243;-69
2023/04/23 06:46:08;;;;;;;8.10;7.30;;;;;;;13.60;71.66;95680.72;5007549;28;20646;-69
2023/04/23 06:48:34;;;;;;;14.10;6.67;;;;;;;13.67;71.30;95674.06;5008303;28;20200;-69
2023/04/23 06:50:59;;;;;;;7.77;6.67;;;;;;;13.47;72.25;95674.59;5008345;28;20867;-69
2023/04/23 06:53:25;;;;;;;12.77;8.20;;;;;;;13.52;71.79;95675.13;5008674;28;20222;-69
2023/04/23 06:55:50;;;;;;;7.70;7.00;;;;;;;13.50;72.02;95674.38;5002367;28;20191;-68
2023/04/23 06:58:17;;;;;;;9.10;7.70;;;;;;;13.43;72.39;95673.94;5008215;28;20188;-67
2023/04/23 07:00:42;;;;;;;9.90;7.30;;;;;;;13.51;72.30;95673.41;5008513;28;20191;-66
2023/04/23 07:03:08;;;;;;;9.87;6.93;;;;;;;14.13;70.46;95668.28;5007346;28;20475;-68
2023/04/23 07:05:33;;;;;;;13.67;7.70;;;;;;;13.80;71.24;95662.72;5007683;28;20184;-70
2023/04/23 07:08:01;;;;;;;8.80;7.27;;;;;;;13.79;71.39;95664.47;5010265;28;20551;-68
2023/04/23 07:10:27;;;;;;;12.80;7.97;;;;;;;13.76;70.91;95668.19;5008586;28;20216;-68
2023/04/23 07:12:52;;;;;;;10.50;6.50;;;;;;;13.81;71.17;95667.88;5007228;28;20497;-67
2023/04/23 07:15:17;;;;;;;8.50;6.90;;;;;;;13.71;71.31;95665.03;5007471;28;20183;-67
2023/04/23 07:17:43;;;;;;;9.17;7.00;;;;;;;13.61;70.78;95653.41;5009439;28;20196;-69
2023/04/23 07:20:08;;;;;;;11.00;7.03;;;;;;;13.68;71.73;95661.75;5008395;28;20207;-69
2023/04/23 07:22:34;;;;;;;24.43;7.60;;;;;;;13.72;70.77;95658.81;5006402;28;20204;-68
2023/04/23 07:25:01;;;;;;;17.00;6.63;;;;;;;13.69;70.33;95658.16;5009400;28;20708;-68
2023/04/23 07:27:26;;;;;;;21.17;7.50;;;;;;;13.74;70.58;95656.88;5006717;28;20192;-69
2023/04/23 07:29:52;;;;;;;9.10;6.90;;;;;;;13.79;71.21;95659.22;5007245;28;20761;-68
2023/04/23 07:32:17;;;;;;;8.17;6.63;;;;;;;13.81;69.86;95652.03;5004711;28;20254;-68
2023/04/23 07:34:43;;;;;;;7.77;6.77;;;;;;;13.81;70.97;95648.56;5008055;28;20263;-67
2023/04/23 07:37:09;;;;;;;6.63;5.97;;;;;;;13.84;70.11;95651.84;5007374;28;20180;-68
2023/04/23 07:39:34;;;;;;;6.40;5.80;;;;;;;13.96;70.07;95644.84;5005264;28;20608;-68
2023/04/23 07:42:00;;;;;;;6.60;5.90;;;;;;;14.21;68.53;95651.06;5004879;28;20204;-68
2023/04/23 07:44:26;;;;;;;9.63;6.73;;;;;;;14.34;68.63;95651.91;5008121;28;20212;-68
2023/04/23 07:46:52;;;;;;;8.07;6.00;;;;;;;14.39;67.70;95644.50;5007032;28;20492;-68
2023/04/23 07:49:17;;;;;;;11.40;6.70;;;;;;;14.63;67.81;95649.84;5007727;28;20180;-67
2023/04/23 07:51:42;;;;;;;10.93;5.97;;;;;;;14.44;67.40;95638.91;5006722;28;20189;-68
2023/04/23 07:54:08;;;;;;;14.20;6.80;;;;;;;14.44;66.47;95639.72;5007432;28;20185;-69
2023/04/23 07:56:35;;;;;;;5.50;4.87;;;;;;;14.35;66.95;95643.03;5008166;28;20283;-69
2023/04/23 07:59:01;;;;;;;5.97;5.37;;;;;;;14.52;66.80;95641.81;5007535;28;20180;-68
2023/04/23 08:01:26;;;;;;;6.57;5.00;;;;;;;14.59;65.75;95645.72;5007167;28;20473;-69
2023/04/23 08:03:54;;;;;;;5.47;4.97;;;;;;;14.58;65.36;95644.91;5006348;28;20270;-68
2023/04/23 08:06:20;;;;;;;8.80;5.30;;;;;;;14.37;66.51;95638.47;5006316;28;20587;-67
2023/04/23 08:08:46;;;;;;;5.13;4.50;;;;;;;14.65;65.76;95639.19;5007413;28;20989;-67
2023/04/23 08:11:11;;;;;;;9.97;5.60;;;;;;;15.19;63.97;95644.84;5004955;28;20430;-69
2023/04/23 08:13:37;;;;;;;7.13;4.50;;;;;;;15.63;62.21;95632.72;5006140;28;20705;-69
2023/04/23 08:16:02;;;;;;;11.53;3.57;;;;;;;15.75;61.30;95617.75;5006638;28;20626;-69
2023/04/23 08:18:27;;;;;;;10.93;4.80;;;;;;;16.19;59.73;95620.56;5007538;28;20897;-68
2023/04/23 08:20:55;;;;;;;13.70;4.50;;;;;;;15.99;60.04;95622.97;5005973;28;20203;-69
2023/04/23 08:23:20;;;;;;;8.93;5.03;;;;;;;16.02;59.46;95612.13;5002589;28;20258;-69
2023/04/23 08:25:45;;;;;;;6.13;3.67;;;;;;;16.02;58.32;95613.94;5007151;28;20439;-69
2023/04/23 08:28:11;;;;;;;5.23;3.60;;;;;;;15.77;59.07;95609.69;5006480;28;20256;-68
2023/04/23 08:30:36;;;;;;;9.47;3.90;;;;;;;16.33;57.96;95603.56;5006479;28;20638;-68
2023/04/23 08:33:02;;;;;;;7.83;3.70;;;;;;;16.71;57.55;95600.50;5007163;28;20224;-68
2023/04/23 08:35:27;;;;;;;14.50;4.57;;;;;;;16.61;56.33;95600.41;5007423;28;20195;-67
2023/04/23 08:37:53;;;;;;;14.07;3.73;;;;;;;16.54;56.72;95606.31;5008610;28;20219;-68
2023/04/23 08:40:18;;;;;;;7.60;3.60;;;;;;;16.35;56.39;95606.94;5003497;28;20701;-69
2023/04/23 08:42:55;;;;;;;3.55;2.75;;;;;;;15.91;56.68;95611.28;5003215;28;20601;-68
2023/04/23 08:45:22;;;;;;;5.50;2.50;;;;;;;15.81;56.53;95611.16;5005838;28;20184;-68
2023/04/23 08:47:48;;;;;;;6.60;2.77;;;;;;;15.51;57.72;95612.50;5004853;28;20462;-68
2023/04/23 08:50:19;;;;;;;6.57;2.70;;;;;;;15.50;58.00;95624.06;5006056;28;20463;-69
2023/04/23 08:52:55;;;;;;;7.20;2.90;;;;;;;15.51;57.55;95622.25;5006874;28;20719;-68
2023/04/23 08:55:22;;;;;;;2.70;2.10;;;;;;;15.53;56.90;95622.97;5003487;28;20434;-67
2023/04/23 08:57:49;;;;;;;2.60;2.23;;;;;;;15.47;57.47;95624.25;5005507;28;20627;-68
2023/04/23 09:00:16;;;;;;;3.90;2.17;;;;;;;15.54;57.83;95622.00;5010157;28;20431;-67
2023/04/23 09:02:45;;;;;;;3.73;2.40;;;;;;;15.54;58.02;95620.19;5004939;28;20951;-67
2023/04/23 09:05:11;;;;;;;9.27;2.60;;;;;;;15.60;57.63;95616.25;5003572;28;20509;-66
2023/04/23 09:07:37;;;;;;;4.53;2.50;;;;;;;15.65;57.77;95608.81;5006955;28;20431;-67
2023/04/23 09:10:07;;;;;;;4.70;2.80;;;;;;;15.68;57.87;95608.56;5005004;28;20438;-68
2023/04/23 09:12:40;;;;;;;4.07;2.20;;;;;;;15.90;56.60;95604.28;5008899;28;20591;-68
2023/04/23 09:15:09;;;;;;;11.57;4.40;;;;;;;16.03;56.19;95602.38;5001493;28;20450;-68
2023/04/23 09:17:38;;;;;;;5.23;2.30;;;;;;;16.12;55.93;95601.66;5001949;28;20850;-68
2023/04/23 09:20:08;;;;;;;5.47;2.73;;;;;;;15.90;56.08;95601.63;5010402;28;20414;-68
2023/04/23 09:22:40;;;;;;;4.60;2.90;;;;;;;15.88;57.00;95601.78;5006908;28;20538;-69
2023/04/23 09:25:07;;;;;;;7.63;3.00;;;;;;;15.86;57.27;95593.13;5006592;28;20463;-68
2023/04/23 09:27:35;;;;;;;5.20;2.80;;;;;;;15.99;57.04;95590.34;5005219;28;20847;-66
2023/04/23 09:30:03;;;;;;;9.37;3.27;;;;;;;15.93;56.07;95588.19;5009767;28;21235;-69
2023/04/23 09:32:38;;;;;;;9.23;2.80;;;;;;;16.04;55.46;95577.63;5007975;28;20521;-69
2023/04/23 09:35:05;;;;;;;7.80;2.87;;;;;;;16.03;56.14;95576.75;5007002;28;20415;-69
2023/04/23 09:37:31;;;;;;;5.83;3.07;;;;;;;16.29;55.52;95576.50;5007002;28;20450;-69
2023/04/23 09:40:09;;;;;;;7.87;2.50;;;;;;;16.68;54.65;95576.91;5006178;28;20431;-68
2023/04/23 09:42:35;;;;;;;5.30;2.50;;;;;;;16.92;53.45;95564.31;5003668;28;21196;-68
2023/04/23 09:45:07;;;;;;;3.10;2.07;;;;;;;17.19;52.51;95564.78;5003475;28;20601;-68
2023/04/23 09:47:34;;;;;;;3.70;2.47;;;;;;;17.44;52.47;95561.75;5003319;28;20434;-68
2023/04/23 09:50:00;;;;;;;5.00;2.60;;;;;;;17.45;51.77;95552.81;5005715;28;20430;-69
2023/04/23 09:52:27;;;;;;;6.40;3.13;;;;;;;17.35;51.39;95554.59;5014539;28;20521;-69
2023/04/23 09:54:55;;;;;;;5.60;1.70;;;;;;;17.29;49.99;95555.97;5018309;28;20518;-68
2023/04/23 09:57:23;;;;;;;2.53;1.67;;;;;;;17.35;50.19;95558.06;5005884;28;20425;-66
2023/04/23 09:59:49;;;;;;;2.97;1.70;;;;;;;17.27;50.82;95554.41;5007807;28;20500;-68
2023/04/23 10:02:14;;;;;;;2.50;1.80;;;;;;;17.24;50.82;95554.63;5007142;28;20899;-68
2023/04/23 10:04:40;;;;;;;2.50;1.73;;;;;;;17.29;50.75;95544.47;5003406;28;20191;-67
2023/04/23 10:07:12;;;;;;;4.13;1.67;;;;;;;17.84;49.30;95539.81;4999856;28;20295;-68
2023/04/23 10:09:40;;;;;;;3.87;1.90;;;;;;;18.07;47.52;95531.63;4985595;28;20482;-67
2023/04/23 10:12:07;;;;;;;4.37;2.20;;;;;;;18.12;47.07;95529.44;4983455;28;20971;-68
2023/04/23 10:14:33;;;;;;;2.80;1.80;;;;;;;18.28;47.54;95527.09;4985511;28;20535;-68
2023/04/23 10:17:00;;;;;;;5.43;1.90;;;;;;;18.17;48.19;95533.38;4985643;28;20439;-68
2023/04/23 10:19:27;;;;;;;7.83;2.30;;;;;;;17.85;49.38;95528.22;4981545;28;20250;-66
2023/04/23 10:22:04;;;;;;;4.30;2.30;;;;;;;18.49;47.93;95523.50;4980357;28;20455;-66
2023/04/23 10:24:33;;;;;;;5.80;2.27;;;;;;;18.90;46.54;95525.13;4987363;28;20582;-67
2023/04/23 10:27:01;;;;;;;6.53;3.30;;;;;;;18.86;47.32;95529.03;4986795;28;21200;-67
2023/04/23 10:29:36;;;;;;;5.03;2.20;;;;;;;18.78;47.30;95520.91;4987084;28;20905;-69
2023/04/23 10:32:05;;;;;;;3.50;2.00;;;;;;;18.83;47.39;95518.69;4986717;28;20518;-67
2023/04/23 10:34:31;;;;;;;3.90;2.07;;;;;;;18.77;47.99;95508.59;4986964;28;20416;-68
2023/04/23 10:36:58;;;;;;;38.57;5.90;;;;;;;18.77;47.41;95506.78;4985468;28;20438;-68
2023/04/23 10:39:27;;;;;;;39.70;6.97;;;;;;;19.06;46.04;95508.59;4983965;28;20436;-69
2023/04/23 10:41:54;;;;;;;37.30;6.43;;;;;;;19.04;45.67;95505.25;4981847;28;20490;-68
2023/04/23 10:44:22;;;;;;;27.80;5.30;;;;;;;19.07;45.37;95493.50;4982647;28;20545;-68
2023/04/23 10:47:00;;;;;;;6.50;2.40;;;;;;;19.31;45.25;95499.19;4985985;28;20483;-67
2023/04/23 10:49:30;;;;;;;21.73;4.37;;;;;;;19.37;44.10;95495.09;4996798;28;21059;-67
2023/04/23 10:52:15;;;;;;;15.30;3.27;;;;;;;19.05;44.63;95496.28;5004956;28;20596;-68
2023/04/23 10:54:41;;;;;;;13.97;3.53;;;;;;;19.19;44.97;95498.50;5002769;28;21075;-67
2023/04/23 10:57:08;;;;;;;14.27;3.53;;;;;;;19.27;45.87;95494.28;5002451;28;20445;-66
2023/04/23 10:59:38;;;;;;;12.10;1.87;;;;;;;19.27;44.70;95484.47;5004679;28;20524;-67
2023/04/23 11:02:06;;;;;;;6.40;2.27;;;;;;;19.13;46.02;95477.78;5003886;28;20481;-68
2023/04/23 11:04:33;;;;;;;3.03;1.70;;;;;;;19.18;45.88;95480.03;5004123;28;20470;-68
2023/04/23 11:07:09;;;;;;;3.83;2.37;;;;;;;18.74;47.41;95480.47;5004744;28;20438;-66
2023/04/23 11:09:44;;;;;;;38.57;5.40;;;;;;;19.20;45.88;95473.56;5006798;28;20449;-69
2023/04/23 11:12:33;;;;;;;10.00;3.00;;;;;;;19.58;44.23;95471.81;5007376;28;20442;-69
2023/04/23 11:15:10;;;;;;;10.13;3.30;;;;;;;19.43;44.54;95475.91;5004689;28;20522;-68
2023/04/23 11:17:35;;;;;;;15.37;2.93;;;;;;;19.46;45.20;95475.63;5002694;28;20462;-69
2023/04/23 11:20:09;;;;;;;7.90;2.60;;;;;;;18.60;46.57;95478.22;5005029;28;20937;-67
2023/04/23 11:22:43;;;;;;;9.23;3.63;;;;;;;18.72;46.86;95471.78;5005767;28;20715;-67
2023/04/23 11:25:10;;;;;;;5.43;2.33;;;;;;;18.50;47.86;95472.06;5003209;28;21319;-66
2023/04/23 11:27:42;;;;;;;7.77;2.07;;;;;;;18.65;47.66;95464.50;5001753;28;20485;-66
2023/04/23 11:30:20;;;;;;;9.87;2.70;;;;;;;18.84;46.61;95464.53;5015237;28;20434;-68